sensor_id;sensor_type;location;lat;lon;timestamp;P1;durP1;ratioP1;P2;durP2;ratioP2
8094;SDS011;4090;49.270;8.696;2023-07-20T00:01:33;3.58;;;2.20;;
8094;SDS011;4090;49.270;8.696;2023-07-20T00:04:15;3.58;;;2.28;;
8094;SDS011;4090;49.270;8.696;2023-07-20T00:06:57;3.60;;;2.08;;
8094;SDS011;4090;49.270;8.696;2023-07-20T00:09:39;3.38;;;2.28;;
8094;SDS011;4090;49.270;8.696;2023-07-20T00:12:22;2.75;;;2.00;;
8094;SDS011;4090;49.270;8.696;2023-07-20T00:15:04;4.88;;;2.72;;
8094;SDS011;4090;49.270;8.696;2023-07-20T00:17:46;2.90;;;2.10;;
8094;SDS011;4090;49.270;8.696;2023-07-20T00:20:28;3.95;;;2.28;;
8094;SDS011;4090;49.270;8.696;2023-07-20T00:23:10;3.88;;;2.25;;
8094;SDS011;4090;49.270;8.696;2023-07-20T00:25:52;2.22;;;1.95;;
8094;SDS011;4090;49.270;8.696;2023-07-20T00:28:36;4.03;;;2.10;;
8094;SDS011;4090;49.270;8.696;2023-07-20T00:31:18;3.15;;;2.10;;
8094;SDS011;4090;49.270;8.696;2023-07-20T00:34:00;4.05;;;2.10;;
8094;SDS011;4090;49.270;8.696;2023-07-20T00:36:42;4.90;;;2.20;;
8094;SDS011;4090;49.270;8.696;2023-07-20T00:39:24;3.22;;;2.13;;
8094;SDS011;4090;49.270;8.696;2023-07-20T00:42:06;3.58;;;2.25;;
8094;SDS011;4090;49.270;8.696;2023-07-20T00:44:49;3.00;;;2.13;;
8094;SDS011;4090;49.270;8.696;2023-07-20T00:47:31;4.60;;;2.30;;
8094;SDS011;4090;49.270;8.696;2023-07-20T00:50:14;2.83;;;2.03;;
8094;SDS011;4090;49.270;8.696;2023-07-20T00:52:56;6.80;;;2.33;;
8094;SDS011;4090;49.270;8.696;2023-07-20T00:55:39;3.97;;;2.20;;
8094;SDS011;4090;49.270;8.696;2023-07-20T00:58:21;3.50;;;2.17;;
8094;SDS011;4090;49.270;8.696;2023-07-20T01:01:05;3.10;;;2.20;;
8094;SDS011;4090;49.270;8.696;2023-07-20T01:03:47;2.30;;;2.10;;
8094;SDS011;4090;49.270;8.696;2023-07-20T01:06:31;6.88;;;1.90;;
8094;SDS011;4090;49.270;8.696;2023-07-20T01:09:24;3.17;;;2.08;;
8094;SDS011;4090;49.270;8.696;2023-07-20T01:12:12;3.20;;;2.05;;
8094;SDS011;4090;49.270;8.696;2023-07-20T01:14:59;3.95;;;2.13;;
8094;SDS011;4090;49.270;8.696;2023-07-20T01:17:43;4.43;;;2.40;;
8094;SDS011;4090;49.270;8.696;2023-07-20T01:20:25;4.97;;;2.17;;
8094;SDS011;4090;49.270;8.696;2023-07-20T01:23:15;2.72;;;2.10;;
8094;SDS011;4090;49.270;8.696;2023-07-20T01:29:26;3.53;;;2.30;;
8094;SDS011;4090;49.270;8.696;2023-07-20T01:32:21;2.95;;;2.22;;
8094;SDS011;4090;49.270;8.696;2023-07-20T01:35:06;3.55;;;2.20;;
8094;SDS011;4090;49.270;8.696;2023-07-20T01:37:50;3.42;;;2.20;;
8094;SDS011;4090;49.270;8.696;2023-07-20T01:40:32;3.38;;;2.20;;
8094;SDS011;4090;49.270;8.696;2023-07-20T01:43:15;3.42;;;2.22;;
8094;SDS011;4090;49.270;8.696;2023-07-20T01:45:57;4.35;;;2.20;;
8094;SDS011;4090;49.270;8.696;2023-07-20T01:48:42;7.30;;;2.67;;
8094;SDS011;4090;49.270;8.696;2023-07-20T01:51:24;2.83;;;2.25;;
8094;SDS011;4090;49.270;8.696;2023-07-20T01:54:06;3.25;;;2.38;;
8094;SDS011;4090;49.270;8.696;2023-07-20T01:56:50;5.35;;;2.60;;
8094;SDS011;4090;49.270;8.696;2023-07-20T01:59:32;5.68;;;2.50;;
8094;SDS011;4090;49.270;8.696;2023-07-20T02:02:14;4.43;;;2.30;;
8094;SDS011;4090;49.270;8.696;2023-07-20T02:04:58;5.20;;;2.33;;
8094;SDS011;4090;49.270;8.696;2023-07-20T02:07:40;3.60;;;2.35;;
8094;SDS011;4090;49.270;8.696;2023-07-20T02:10:22;3.13;;;2.60;;
8094;SDS011;4090;49.270;8.696;2023-07-20T02:13:04;3.28;;;2.28;;
8094;SDS011;4090;49.270;8.696;2023-07-20T02:15:45;3.05;;;2.40;;
8094;SDS011;4090;49.270;8.696;2023-07-20T02:18:29;3.85;;;2.42;;
8094;SDS011;4090;49.270;8.696;2023-07-20T02:21:12;3.50;;;2.45;;
8094;SDS011;4090;49.270;8.696;2023-07-20T02:23:54;4.40;;;2.00;;
8094;SDS011;4090;49.270;8.696;2023-07-20T02:26:36;4.50;;;2.42;;
8094;SDS011;4090;49.270;8.696;2023-07-20T02:29:18;3.70;;;2.40;;
8094;SDS011;4090;49.270;8.696;2023-07-20T02:32:00;2.33;;;1.92;;
8094;SDS011;4090;49.270;8.696;2023-07-20T02:34:42;4.05;;;2.30;;
8094;SDS011;4090;49.270;8.696;2023-07-20T02:37:25;4.80;;;2.20;;
8094;SDS011;4090;49.270;8.696;2023-07-20T02:40:08;5.13;;;2.20;;
8094;SDS011;4090;49.270;8.696;2023-07-20T02:42:50;3.40;;;2.28;;
8094;SDS011;4090;49.270;8.696;2023-07-20T02:45:32;3.53;;;2.30;;
8094;SDS011;4090;49.270;8.696;2023-07-20T02:48:14;2.72;;;2.20;;
8094;SDS011;4090;49.270;8.696;2023-07-20T02:50:56;3.17;;;2.08;;
8094;SDS011;4090;49.270;8.696;2023-07-20T02:53:39;5.95;;;2.33;;
8094;SDS011;4090;49.270;8.696;2023-07-20T02:56:21;5.80;;;2.35;;
8094;SDS011;4090;49.270;8.696;2023-07-20T02:59:04;2.72;;;2.20;;
8094;SDS011;4090;49.270;8.696;2023-07-20T03:01:46;3.10;;;2.30;;
8094;SDS011;4090;49.270;8.696;2023-07-20T03:04:28;3.17;;;2.05;;
8094;SDS011;4090;49.270;8.696;2023-07-20T03:07:10;4.93;;;2.50;;
8094;SDS011;4090;49.270;8.696;2023-07-20T03:09:53;5.40;;;2.25;;
8094;SDS011;4090;49.270;8.696;2023-07-20T03:12:35;3.85;;;2.33;;
8094;SDS011;4090;49.270;8.696;2023-07-20T03:15:17;3.53;;;1.92;;
8094;SDS011;4090;49.270;8.696;2023-07-20T03:17:59;4.20;;;2.20;;
8094;SDS011;4090;49.270;8.696;2023-07-20T03:20:43;5.25;;;2.25;;
8094;SDS011;4090;49.270;8.696;2023-07-20T03:23:25;4.32;;;2.50;;
8094;SDS011;4090;49.270;8.696;2023-07-20T03:26:09;2.30;;;2.08;;
8094;SDS011;4090;49.270;8.696;2023-07-20T03:28:51;4.90;;;2.22;;
8094;SDS011;4090;49.270;8.696;2023-07-20T03:31:35;3.38;;;2.20;;
8094;SDS011;4090;49.270;8.696;2023-07-20T03:34:18;3.45;;;2.40;;
8094;SDS011;4090;49.270;8.696;2023-07-20T03:37:00;5.85;;;2.55;;
8094;SDS011;4090;49.270;8.696;2023-07-20T03:39:44;3.88;;;2.20;;
8094;SDS011;4090;49.270;8.696;2023-07-20T03:42:27;5.13;;;2.00;;
8094;SDS011;4090;49.270;8.696;2023-07-20T03:45:09;4.38;;;2.40;;
8094;SDS011;4090;49.270;8.696;2023-07-20T03:47:51;3.97;;;2.30;;
8094;SDS011;4090;49.270;8.696;2023-07-20T03:50:33;2.17;;;1.98;;
8094;SDS011;4090;49.270;8.696;2023-07-20T03:53:15;3.33;;;2.10;;
8094;SDS011;4090;49.270;8.696;2023-07-20T03:55:58;3.47;;;2.30;;
8094;SDS011;4090;49.270;8.696;2023-07-20T03:58:41;4.20;;;2.13;;
8094;SDS011;4090;49.270;8.696;2023-07-20T04:01:23;3.85;;;2.58;;
8094;SDS011;4090;49.270;8.696;2023-07-20T04:04:05;3.45;;;2.08;;
8094;SDS011;4090;49.270;8.696;2023-07-20T04:06:48;3.30;;;2.40;;
8094;SDS011;4090;49.270;8.696;2023-07-20T04:09:31;4.13;;;2.33;;
8094;SDS011;4090;49.270;8.696;2023-07-20T04:12:13;2.78;;;2.00;;
8094;SDS011;4090;49.270;8.696;2023-07-20T04:14:56;4.90;;;2.17;;
8094;SDS011;4090;49.270;8.696;2023-07-20T04:17:38;6.95;;;2.72;;
8094;SDS011;4090;49.270;8.696;2023-07-20T04:20:20;4.65;;;2.47;;
8094;SDS011;4090;49.270;8.696;2023-07-20T04:23:02;3.40;;;2.45;;
8094;SDS011;4090;49.270;8.696;2023-07-20T04:25:44;7.15;;;2.40;;
8094;SDS011;4090;49.270;8.696;2023-07-20T04:28:27;2.95;;;2.20;;
8094;SDS011;4090;49.270;8.696;2023-07-20T04:31:13;3.58;;;2.17;;
8094;SDS011;4090;49.270;8.696;2023-07-20T04:33:57;4.05;;;2.55;;
8094;SDS011;4090;49.270;8.696;2023-07-20T04:36:39;2.83;;;2.17;;
8094;SDS011;4090;49.270;8.696;2023-07-20T04:39:21;7.45;;;2.50;;
8094;SDS011;4090;49.270;8.696;2023-07-20T04:42:03;4.70;;;2.45;;
8094;SDS011;4090;49.270;8.696;2023-07-20T04:44:45;4.30;;;2.47;;
8094;SDS011;4090;49.270;8.696;2023-07-20T04:47:29;7.40;;;3.20;;
8094;SDS011;4090;49.270;8.696;2023-07-20T04:50:11;7.10;;;2.70;;
8094;SDS011;4090;49.270;8.696;2023-07-20T04:52:53;8.02;;;2.67;;
8094;SDS011;4090;49.270;8.696;2023-07-20T04:55:36;4.32;;;2.78;;
8094;SDS011;4090;49.270;8.696;2023-07-20T04:58:19;6.03;;;2.78;;
8094;SDS011;4090;49.270;8.696;2023-07-20T05:01:02;5.50;;;2.67;;
8094;SDS011;4090;49.270;8.696;2023-07-20T05:03:46;7.97;;;2.75;;
8094;SDS011;4090;49.270;8.696;2023-07-20T05:06:27;9.43;;;2.63;;
8094;SDS011;4090;49.270;8.696;2023-07-20T05:09:09;3.90;;;2.38;;
8094;SDS011;4090;49.270;8.696;2023-07-20T05:11:51;5.57;;;2.85;;
8094;SDS011;4090;49.270;8.696;2023-07-20T05:14:33;5.93;;;2.35;;
8094;SDS011;4090;49.270;8.696;2023-07-20T05:17:15;4.30;;;2.50;;
8094;SDS011;4090;49.270;8.696;2023-07-20T05:19:58;4.95;;;2.30;;
8094;SDS011;4090;49.270;8.696;2023-07-20T05:22:41;5.25;;;2.83;;
8094;SDS011;4090;49.270;8.696;2023-07-20T05:25:23;3.30;;;2.30;;
8094;SDS011;4090;49.270;8.696;2023-07-20T05:28:05;3.80;;;2.20;;
8094;SDS011;4090;49.270;8.696;2023-07-20T05:30:47;4.20;;;2.22;;
8094;SDS011;4090;49.270;8.696;2023-07-20T05:33:30;3.83;;;2.30;;
8094;SDS011;4090;49.270;8.696;2023-07-20T05:36:14;4.38;;;2.22;;
8094;SDS011;4090;49.270;8.696;2023-07-20T05:38:56;4.63;;;2.53;;
8094;SDS011;4090;49.270;8.696;2023-07-20T05:41:37;3.88;;;2.67;;
8094;SDS011;4090;49.270;8.696;2023-07-20T05:44:19;4.35;;;2.40;;
8094;SDS011;4090;49.270;8.696;2023-07-20T05:47:02;3.60;;;2.63;;
8094;SDS011;4090;49.270;8.696;2023-07-20T05:49:45;5.30;;;2.58;;
8094;SDS011;4090;49.270;8.696;2023-07-20T05:52:28;3.72;;;2.58;;
8094;SDS011;4090;49.270;8.696;2023-07-20T05:55:10;5.35;;;2.33;;
8094;SDS011;4090;49.270;8.696;2023-07-20T05:57:52;3.88;;;2.42;;
8094;SDS011;4090;49.270;8.696;2023-07-20T06:00:36;3.10;;;2.10;;
8094;SDS011;4090;49.270;8.696;2023-07-20T06:03:18;8.85;;;2.55;;
8094;SDS011;4090;49.270;8.696;2023-07-20T06:06:01;3.42;;;2.65;;
8094;SDS011;4090;49.270;8.696;2023-07-20T06:08:45;4.53;;;2.17;;
8094;SDS011;4090;49.270;8.696;2023-07-20T06:11:27;6.22;;;2.58;;
8094;SDS011;4090;49.270;8.696;2023-07-20T06:14:09;5.00;;;2.38;;
8094;SDS011;4090;49.270;8.696;2023-07-20T06:16:51;3.90;;;2.67;;
8094;SDS011;4090;49.270;8.696;2023-07-20T06:19:33;5.07;;;2.75;;
8094;SDS011;4090;49.270;8.696;2023-07-20T06:22:15;6.78;;;2.80;;
8094;SDS011;4090;49.270;8.696;2023-07-20T06:24:58;6.63;;;3.10;;
8094;SDS011;4090;49.270;8.696;2023-07-20T06:27:41;6.05;;;2.92;;
8094;SDS011;4090;49.270;8.696;2023-07-20T06:30:24;6.75;;;2.83;;
8094;SDS011;4090;49.270;8.696;2023-07-20T06:33:06;4.88;;;2.78;;
8094;SDS011;4090;49.270;8.696;2023-07-20T06:35:48;11.25;;;3.08;;
8094;SDS011;4090;49.270;8.696;2023-07-20T06:38:30;5.88;;;2.60;;
8094;SDS011;4090;49.270;8.696;2023-07-20T06:41:13;3.90;;;2.60;;
8094;SDS011;4090;49.270;8.696;2023-07-20T06:43:55;7.80;;;2.75;;
8094;SDS011;4090;49.270;8.696;2023-07-20T06:46:38;5.22;;;2.90;;
8094;SDS011;4090;49.270;8.696;2023-07-20T06:49:26;4.35;;;2.42;;
8094;SDS011;4090;49.270;8.696;2023-07-20T06:52:08;3.90;;;2.70;;
8094;SDS011;4090;49.270;8.696;2023-07-20T06:54:50;4.93;;;2.80;;
8094;SDS011;4090;49.270;8.696;2023-07-20T06:57:33;8.32;;;2.92;;
8094;SDS011;4090;49.270;8.696;2023-07-20T07:00:16;5.10;;;2.67;;
8094;SDS011;4090;49.270;8.696;2023-07-20T07:02:58;4.95;;;2.65;;
8094;SDS011;4090;49.270;8.696;2023-07-20T07:05:41;5.00;;;2.60;;
8094;SDS011;4090;49.270;8.696;2023-07-20T07:08:23;4.88;;;2.50;;
8094;SDS011;4090;49.270;8.696;2023-07-20T07:11:04;3.00;;;2.15;;
8094;SDS011;4090;49.270;8.696;2023-07-20T07:13:48;4.45;;;2.38;;
8094;SDS011;4090;49.270;8.696;2023-07-20T07:16:31;4.75;;;3.05;;
8094;SDS011;4090;49.270;8.696;2023-07-20T07:19:13;6.75;;;2.97;;
8094;SDS011;4090;49.270;8.696;2023-07-20T07:21:55;5.53;;;2.95;;
8094;SDS011;4090;49.270;8.696;2023-07-20T07:24:37;4.05;;;2.30;;
8094;SDS011;4090;49.270;8.696;2023-07-20T07:27:21;5.07;;;2.50;;
8094;SDS011;4090;49.270;8.696;2023-07-20T07:30:05;10.10;;;3.17;;
8094;SDS011;4090;49.270;8.696;2023-07-20T07:32:48;3.83;;;2.80;;
8094;SDS011;4090;49.270;8.696;2023-07-20T07:35:30;5.05;;;2.50;;
8094;SDS011;4090;49.270;8.696;2023-07-20T07:38:12;6.80;;;3.05;;
8094;SDS011;4090;49.270;8.696;2023-07-20T07:40:54;13.60;;;2.90;;
8094;SDS011;4090;49.270;8.696;2023-07-20T07:43:36;5.65;;;2.75;;
8094;SDS011;4090;49.270;8.696;2023-07-20T07:46:20;9.02;;;2.95;;
8094;SDS011;4090;49.270;8.696;2023-07-20T07:49:01;4.63;;;2.75;;
8094;SDS011;4090;49.270;8.696;2023-07-20T07:51:44;5.03;;;2.63;;
8094;SDS011;4090;49.270;8.696;2023-07-20T07:54:26;4.65;;;2.35;;
8094;SDS011;4090;49.270;8.696;2023-07-20T07:57:08;6.97;;;2.60;;
8094;SDS011;4090;49.270;8.696;2023-07-20T07:59:50;5.40;;;2.47;;
8094;SDS011;4090;49.270;8.696;2023-07-20T08:02:33;5.28;;;2.33;;
8094;SDS011;4090;49.270;8.696;2023-07-20T08:05:15;4.53;;;2.40;;
8094;SDS011;4090;49.270;8.696;2023-07-20T08:07:57;5.30;;;2.50;;
8094;SDS011;4090;49.270;8.696;2023-07-20T08:10:39;2.42;;;1.98;;
8094;SDS011;4090;49.270;8.696;2023-07-20T08:13:21;5.63;;;2.38;;
8094;SDS011;4090;49.270;8.696;2023-07-20T08:16:03;4.10;;;2.10;;
8094;SDS011;4090;49.270;8.696;2023-07-20T08:18:46;5.10;;;2.38;;
8094;SDS011;4090;49.270;8.696;2023-07-20T08:21:28;6.38;;;2.78;;
8094;SDS011;4090;49.270;8.696;2023-07-20T08:24:10;4.65;;;2.05;;
8094;SDS011;4090;49.270;8.696;2023-07-20T08:26:52;4.25;;;1.65;;
8094;SDS011;4090;49.270;8.696;2023-07-20T08:29:34;3.03;;;1.90;;
8094;SDS011;4090;49.270;8.696;2023-07-20T08:32:16;5.00;;;1.67;;
8094;SDS011;4090;49.270;8.696;2023-07-20T08:34:59;3.58;;;1.50;;
8094;SDS011;4090;49.270;8.696;2023-07-20T08:37:41;2.90;;;1.80;;
8094;SDS011;4090;49.270;8.696;2023-07-20T08:40:23;3.25;;;1.67;;
8094;SDS011;4090;49.270;8.696;2023-07-20T08:43:05;5.45;;;1.90;;
8094;SDS011;4090;49.270;8.696;2023-07-20T08:45:47;1.85;;;1.70;;
8094;SDS011;4090;49.270;8.696;2023-07-20T08:48:31;4.07;;;1.77;;
8094;SDS011;4090;49.270;8.696;2023-07-20T08:51:14;3.63;;;2.05;;
8094;SDS011;4090;49.270;8.696;2023-07-20T08:53:58;5.05;;;2.25;;
8094;SDS011;4090;49.270;8.696;2023-07-20T08:56:40;2.70;;;1.95;;
8094;SDS011;4090;49.270;8.696;2023-07-20T08:59:22;4.03;;;2.22;;
8094;SDS011;4090;49.270;8.696;2023-07-20T09:02:06;3.30;;;1.83;;
8094;SDS011;4090;49.270;8.696;2023-07-20T09:04:54;4.38;;;2.15;;
8094;SDS011;4090;49.270;8.696;2023-07-20T09:07:38;4.47;;;2.22;;
8094;SDS011;4090;49.270;8.696;2023-07-20T09:10:21;6.05;;;1.90;;
8094;SDS011;4090;49.270;8.696;2023-07-20T09:13:03;4.80;;;2.08;;
8094;SDS011;4090;49.270;8.696;2023-07-20T09:15:45;3.30;;;1.90;;
8094;SDS011;4090;49.270;8.696;2023-07-20T09:18:28;3.95;;;2.00;;
8094;SDS011;4090;49.270;8.696;2023-07-20T09:21:11;5.43;;;2.13;;
8094;SDS011;4090;49.270;8.696;2023-07-20T09:23:59;4.03;;;2.13;;
8094;SDS011;4090;49.270;8.696;2023-07-20T09:26:41;3.83;;;1.90;;
8094;SDS011;4090;49.270;8.696;2023-07-20T09:29:24;4.25;;;2.20;;
8094;SDS011;4090;49.270;8.696;2023-07-20T09:32:06;4.05;;;2.05;;
8094;SDS011;4090;49.270;8.696;2023-07-20T09:34:49;4.07;;;2.05;;
8094;SDS011;4090;49.270;8.696;2023-07-20T09:37:32;3.50;;;1.80;;
8094;SDS011;4090;49.270;8.696;2023-07-20T09:40:16;3.70;;;2.20;;
8094;SDS011;4090;49.270;8.696;2023-07-20T09:42:59;5.18;;;2.17;;
8094;SDS011;4090;49.270;8.696;2023-07-20T09:45:41;3.22;;;1.83;;
8094;SDS011;4090;49.270;8.696;2023-07-20T09:48:23;3.30;;;2.10;;
8094;SDS011;4090;49.270;8.696;2023-07-20T09:51:06;5.65;;;2.28;;
8094;SDS011;4090;49.270;8.696;2023-07-20T09:53:49;4.38;;;2.00;;
8094;SDS011;4090;49.270;8.696;2023-07-20T09:56:35;3.45;;;1.70;;
8094;SDS011;4090;49.270;8.696;2023-07-20T09:59:19;3.47;;;1.90;;
8094;SDS011;4090;49.270;8.696;2023-07-20T10:02:01;3.10;;;2.08;;
8094;SDS011;4090;49.270;8.696;2023-07-20T10:04:46;4.72;;;1.75;;
8094;SDS011;4090;49.270;8.696;2023-07-20T10:07:30;2.08;;;1.70;;
8094;SDS011;4090;49.270;8.696;2023-07-20T10:10:14;3.38;;;1.40;;
8094;SDS011;4090;49.270;8.696;2023-07-20T10:13:00;1.80;;;1.70;;
8094;SDS011;4090;49.270;8.696;2023-07-20T10:15:46;2.90;;;1.85;;
8094;SDS011;4090;49.270;8.696;2023-07-20T10:18:34;2.03;;;1.83;;
8094;SDS011;4090;49.270;8.696;2023-07-20T10:21:22;4.43;;;1.80;;
8094;SDS011;4090;49.270;8.696;2023-07-20T10:24:05;5.20;;;2.65;;
8094;SDS011;4090;49.270;8.696;2023-07-20T10:26:47;7.90;;;2.85;;
8094;SDS011;4090;49.270;8.696;2023-07-20T10:29:31;16.75;;;6.75;;
8094;SDS011;4090;49.270;8.696;2023-07-20T10:32:14;19.77;;;8.05;;
8094;SDS011;4090;49.270;8.696;2023-07-20T10:34:56;5.78;;;2.90;;
8094;SDS011;4090;49.270;8.696;2023-07-20T10:37:53;3.92;;;2.05;;
8094;SDS011;4090;49.270;8.696;2023-07-20T10:40:40;2.28;;;1.63;;
8094;SDS011;4090;49.270;8.696;2023-07-20T10:43:22;3.13;;;1.70;;
8094;SDS011;4090;49.270;8.696;2023-07-20T10:46:07;3.92;;;2.00;;
8094;SDS011;4090;49.270;8.696;2023-07-20T10:49:01;4.43;;;1.90;;
8094;SDS011;4090;49.270;8.696;2023-07-20T10:51:45;2.30;;;1.70;;
8094;SDS011;4090;49.270;8.696;2023-07-20T10:54:34;2.95;;;1.80;;
8094;SDS011;4090;49.270;8.696;2023-07-20T10:57:31;3.70;;;1.98;;
8094;SDS011;4090;49.270;8.696;2023-07-20T11:00:13;4.00;;;1.90;;
8094;SDS011;4090;49.270;8.696;2023-07-20T11:02:58;4.05;;;1.77;;
8094;SDS011;4090;49.270;8.696;2023-07-20T11:05:40;2.65;;;1.92;;
8094;SDS011;4090;49.270;8.696;2023-07-20T11:08:37;3.28;;;2.13;;
8094;SDS011;4090;49.270;8.696;2023-07-20T11:11:21;2.40;;;1.80;;
8094;SDS011;4090;49.270;8.696;2023-07-20T11:14:05;3.75;;;1.98;;
8094;SDS011;4090;49.270;8.696;2023-07-20T11:16:49;2.17;;;1.67;;
8094;SDS011;4090;49.270;8.696;2023-07-20T11:19:33;4.20;;;1.92;;
8094;SDS011;4090;49.270;8.696;2023-07-20T11:22:16;2.95;;;1.48;;
8094;SDS011;4090;49.270;8.696;2023-07-20T11:24:59;5.50;;;1.73;;
8094;SDS011;4090;49.270;8.696;2023-07-20T11:27:43;3.10;;;1.73;;
8094;SDS011;4090;49.270;8.696;2023-07-20T11:30:26;2.55;;;1.90;;
8094;SDS011;4090;49.270;8.696;2023-07-20T11:33:13;4.35;;;1.83;;
8094;SDS011;4090;49.270;8.696;2023-07-20T11:35:56;3.20;;;1.70;;
8094;SDS011;4090;49.270;8.696;2023-07-20T11:38:39;2.58;;;1.50;;
8094;SDS011;4090;49.270;8.696;2023-07-20T11:41:23;1.98;;;1.83;;
8094;SDS011;4090;49.270;8.696;2023-07-20T11:44:06;3.75;;;1.85;;
8094;SDS011;4090;49.270;8.696;2023-07-20T11:46:59;5.70;;;2.15;;
8094;SDS011;4090;49.270;8.696;2023-07-20T11:49:43;2.95;;;1.70;;
8094;SDS011;4090;49.270;8.696;2023-07-20T11:52:30;3.05;;;2.15;;
8094;SDS011;4090;49.270;8.696;2023-07-20T11:55:13;3.28;;;1.90;;
8094;SDS011;4090;49.270;8.696;2023-07-20T11:58:01;3.25;;;1.88;;
8094;SDS011;4090;49.270;8.696;2023-07-20T12:00:44;2.15;;;1.70;;
8094;SDS011;4090;49.270;8.696;2023-07-20T12:03:26;2.45;;;1.85;;
8094;SDS011;4090;49.270;8.696;2023-07-20T12:06:08;2.00;;;1.80;;
8094;SDS011;4090;49.270;8.696;2023-07-20T12:08:54;2.30;;;1.80;;
8094;SDS011;4090;49.270;8.696;2023-07-20T12:11:37;3.33;;;1.60;;
8094;SDS011;4090;49.270;8.696;2023-07-20T12:14:20;2.72;;;2.00;;
8094;SDS011;4090;49.270;8.696;2023-07-20T12:17:02;2.22;;;1.90;;
8094;SDS011;4090;49.270;8.696;2023-07-20T12:19:44;4.03;;;2.08;;
8094;SDS011;4090;49.270;8.696;2023-07-20T12:22:26;1.70;;;1.60;;
8094;SDS011;4090;49.270;8.696;2023-07-20T12:25:09;2.70;;;1.70;;
8094;SDS011;4090;49.270;8.696;2023-07-20T12:27:51;3.42;;;1.85;;
8094;SDS011;4090;49.270;8.696;2023-07-20T12:30:33;2.50;;;1.80;;
8094;SDS011;4090;49.270;8.696;2023-07-20T12:33:16;3.10;;;2.20;;
8094;SDS011;4090;49.270;8.696;2023-07-20T12:35:57;1.88;;;1.73;;
8094;SDS011;4090;49.270;8.696;2023-07-20T12:38:41;2.22;;;1.70;;
8094;SDS011;4090;49.270;8.696;2023-07-20T12:41:25;1.75;;;1.65;;
8094;SDS011;4090;49.270;8.696;2023-07-20T12:44:07;2.67;;;1.92;;
8094;SDS011;4090;49.270;8.696;2023-07-20T12:46:49;1.90;;;1.70;;
8094;SDS011;4090;49.270;8.696;2023-07-20T12:49:31;2.28;;;1.65;;
8094;SDS011;4090;49.270;8.696;2023-07-20T12:52:12;2.63;;;1.90;;
8094;SDS011;4090;49.270;8.696;2023-07-20T12:54:54;3.08;;;2.00;;
8094;SDS011;4090;49.270;8.696;2023-07-20T12:57:38;1.88;;;1.50;;
8094;SDS011;4090;49.270;8.696;2023-07-20T13:00:22;2.33;;;1.77;;
8094;SDS011;4090;49.270;8.696;2023-07-20T13:03:04;3.42;;;1.60;;
8094;SDS011;4090;49.270;8.696;2023-07-20T13:05:47;3.75;;;1.90;;
8094;SDS011;4090;49.270;8.696;2023-07-20T13:08:29;4.93;;;2.25;;
8094;SDS011;4090;49.270;8.696;2023-07-20T13:11:10;3.58;;;1.77;;
8094;SDS011;4090;49.270;8.696;2023-07-20T13:13:54;4.05;;;1.50;;
8094;SDS011;4090;49.270;8.696;2023-07-20T13:16:35;3.13;;;1.80;;
8094;SDS011;4090;49.270;8.696;2023-07-20T13:19:17;2.15;;;1.80;;
8094;SDS011;4090;49.270;8.696;2023-07-20T13:22:00;2.75;;;1.70;;
8094;SDS011;4090;49.270;8.696;2023-07-20T13:24:44;2.70;;;1.50;;
8094;SDS011;4090;49.270;8.696;2023-07-20T13:27:28;8.43;;;2.70;;
8094;SDS011;4090;49.270;8.696;2023-07-20T13:30:12;2.35;;;1.70;;
8094;SDS011;4090;49.270;8.696;2023-07-20T13:32:56;2.78;;;1.70;;
8094;SDS011;4090;49.270;8.696;2023-07-20T13:35:38;2.25;;;1.80;;
8094;SDS011;4090;49.270;8.696;2023-07-20T13:38:26;2.00;;;1.55;;
8094;SDS011;4090;49.270;8.696;2023-07-20T13:41:08;1.67;;;1.55;;
8094;SDS011;4090;49.270;8.696;2023-07-20T13:43:49;3.95;;;1.58;;
8094;SDS011;4090;49.270;8.696;2023-07-20T13:46:33;1.70;;;1.55;;
8094;SDS011;4090;49.270;8.696;2023-07-20T13:49:15;3.00;;;1.45;;
8094;SDS011;4090;49.270;8.696;2023-07-20T13:51:58;1.50;;;1.40;;
8094;SDS011;4090;49.270;8.696;2023-07-20T13:54:39;2.08;;;1.50;;
8094;SDS011;4090;49.270;8.696;2023-07-20T13:57:21;1.70;;;1.58;;
8094;SDS011;4090;49.270;8.696;2023-07-20T14:00:04;2.13;;;1.90;;
8094;SDS011;4090;49.270;8.696;2023-07-20T14:02:56;2.47;;;1.80;;
8094;SDS011;4090;49.270;8.696;2023-07-20T14:05:38;1.55;;;1.45;;
8094;SDS011;4090;49.270;8.696;2023-07-20T14:08:20;3.17;;;1.75;;
8094;SDS011;4090;49.270;8.696;2023-07-20T14:11:03;2.00;;;1.80;;
8094;SDS011;4090;49.270;8.696;2023-07-20T14:13:44;1.60;;;1.50;;
8094;SDS011;4090;49.270;8.696;2023-07-20T14:16:26;4.70;;;1.73;;
8094;SDS011;4090;49.270;8.696;2023-07-20T14:19:09;2.92;;;1.88;;
8094;SDS011;4090;49.270;8.696;2023-07-20T14:21:52;3.70;;;1.90;;
8094;SDS011;4090;49.270;8.696;2023-07-20T14:24:35;4.95;;;1.67;;
8094;SDS011;4090;49.270;8.696;2023-07-20T14:27:17;3.67;;;1.80;;
8094;SDS011;4090;49.270;8.696;2023-07-20T14:29:59;3.53;;;1.48;;
8094;SDS011;4090;49.270;8.696;2023-07-20T14:32:41;2.40;;;1.75;;
8094;SDS011;4090;49.270;8.696;2023-07-20T14:35:25;1.60;;;1.50;;
8094;SDS011;4090;49.270;8.696;2023-07-20T14:38:07;4.57;;;1.60;;
8094;SDS011;4090;49.270;8.696;2023-07-20T14:40:50;1.73;;;1.63;;
8094;SDS011;4090;49.270;8.696;2023-07-20T14:43:32;3.83;;;1.40;;
8094;SDS011;4090;49.270;8.696;2023-07-20T14:46:14;1.70;;;1.42;;
8094;SDS011;4090;49.270;8.696;2023-07-20T14:48:56;4.43;;;1.60;;
8094;SDS011;4090;49.270;8.696;2023-07-20T14:51:39;3.10;;;1.65;;
8094;SDS011;4090;49.270;8.696;2023-07-20T14:54:23;3.33;;;1.60;;
8094;SDS011;4090;49.270;8.696;2023-07-20T14:57:05;3.28;;;1.52;;
8094;SDS011;4090;49.270;8.696;2023-07-20T14:59:53;1.67;;;1.58;;
8094;SDS011;4090;49.270;8.696;2023-07-20T15:02:35;1.50;;;1.40;;
8094;SDS011;4090;49.270;8.696;2023-07-20T15:05:20;3.53;;;1.90;;
8094;SDS011;4090;49.270;8.696;2023-07-20T15:08:04;1.60;;;1.50;;
8094;SDS011;4090;49.270;8.696;2023-07-20T15:10:48;1.75;;;1.60;;
8094;SDS011;4090;49.270;8.696;2023-07-20T15:13:30;1.65;;;1.50;;
8094;SDS011;4090;49.270;8.696;2023-07-20T15:16:12;1.85;;;1.40;;
8094;SDS011;4090;49.270;8.696;2023-07-20T15:18:53;1.60;;;1.50;;
8094;SDS011;4090;49.270;8.696;2023-07-20T15:21:35;1.90;;;1.80;;
8094;SDS011;4090;49.270;8.696;2023-07-20T15:24:19;2.08;;;1.65;;
8094;SDS011;4090;49.270;8.696;2023-07-20T15:27:00;1.50;;;1.40;;
8094;SDS011;4090;49.270;8.696;2023-07-20T15:29:43;2.92;;;1.70;;
8094;SDS011;4090;49.270;8.696;2023-07-20T15:32:25;1.70;;;1.60;;
8094;SDS011;4090;49.270;8.696;2023-07-20T15:35:07;1.63;;;1.52;;
8094;SDS011;4090;49.270;8.696;2023-07-20T15:37:50;3.72;;;1.88;;
8094;SDS011;4090;49.270;8.696;2023-07-20T15:40:34;2.85;;;1.63;;
8094;SDS011;4090;49.270;8.696;2023-07-20T15:43:16;1.60;;;1.50;;
8094;SDS011;4090;49.270;8.696;2023-07-20T15:46:00;2.15;;;1.50;;
8094;SDS011;4090;49.270;8.696;2023-07-20T15:48:43;2.30;;;1.67;;
8094;SDS011;4090;49.270;8.696;2023-07-20T15:51:26;1.85;;;1.63;;
8094;SDS011;4090;49.270;8.696;2023-07-20T15:54:08;1.65;;;1.50;;
8094;SDS011;4090;49.270;8.696;2023-07-20T15:56:52;2.85;;;1.77;;
8094;SDS011;4090;49.270;8.696;2023-07-20T15:59:34;1.73;;;1.60;;
8094;SDS011;4090;49.270;8.696;2023-07-20T16:02:16;1.73;;;1.50;;
8094;SDS011;4090;49.270;8.696;2023-07-20T16:04:58;1.83;;;1.55;;
8094;SDS011;4090;49.270;8.696;2023-07-20T16:07:40;2.63;;;1.40;;
8094;SDS011;4090;49.270;8.696;2023-07-20T16:10:23;2.30;;;1.60;;
8094;SDS011;4090;49.270;8.696;2023-07-20T16:13:07;1.60;;;1.50;;
8094;SDS011;4090;49.270;8.696;2023-07-20T16:15:49;1.90;;;1.80;;
8094;SDS011;4090;49.270;8.696;2023-07-20T16:18:31;1.73;;;1.63;;
8094;SDS011;4090;49.270;8.696;2023-07-20T16:21:13;1.52;;;1.42;;
8094;SDS011;4090;49.270;8.696;2023-07-20T16:23:55;2.85;;;1.48;;
8094;SDS011;4090;49.270;8.696;2023-07-20T16:26:38;1.80;;;1.60;;
8094;SDS011;4090;49.270;8.696;2023-07-20T16:29:25;2.50;;;1.88;;
8094;SDS011;4090;49.270;8.696;2023-07-20T16:32:08;2.17;;;1.45;;
8094;SDS011;4090;49.270;8.696;2023-07-20T16:34:50;3.33;;;1.60;;
8094;SDS011;4090;49.270;8.696;2023-07-20T16:37:32;4.10;;;1.70;;
8094;SDS011;4090;49.270;8.696;2023-07-20T16:40:14;1.50;;;1.40;;
8094;SDS011;4090;49.270;8.696;2023-07-20T16:42:56;4.47;;;1.60;;
8094;SDS011;4090;49.270;8.696;2023-07-20T16:45:40;1.40;;;1.30;;
8094;SDS011;4090;49.270;8.696;2023-07-20T16:48:23;2.78;;;1.60;;
8094;SDS011;4090;49.270;8.696;2023-07-20T16:51:05;2.40;;;1.40;;
8094;SDS011;4090;49.270;8.696;2023-07-20T16:53:48;2.28;;;1.70;;
8094;SDS011;4090;49.270;8.696;2023-07-20T16:56:30;1.58;;;1.48;;